sensor_id;sensor_type;location;lat;lon;timestamp;pressure;altitude;pressure_sealevel;temperature;humidity
18850;BME280;4989;48.772;9.154;2022-08-19T00:00:54;97547.56;;;25.48;66.95
18850;BME280;4989;48.772;9.154;2022-08-19T00:05:56;97545.59;;;25.43;66.08
18850;BME280;4989;48.772;9.154;2022-08-19T00:10:59;97533.72;;;25.42;67.09
18850;BME280;4989;48.772;9.154;2022-08-19T00:16:01;97547.84;;;25.44;66.06
18850;BME280;4989;48.772;9.154;2022-08-19T00:21:04;97556.41;;;25.46;66.60
18850;BME280;4989;48.772;9.154;2022-08-19T00:26:10;97549.66;;;25.42;65.93
18850;BME280;4989;48.772;9.154;2022-08-19T00:31:13;97536.81;;;25.39;66.46
18850;BME280;4989;48.772;9.154;2022-08-19T00:36:16;97539.91;;;25.35;66.54
18850;BME280;4989;48.772;9.154;2022-08-19T00:41:21;97527.28;;;25.34;66.59
18850;BME280;4989;48.772;9.154;2022-08-19T00:46:23;97528.59;;;25.33;65.67
18850;BME280;4989;48.772;9.154;2022-08-19T00:51:28;97522.06;;;25.30;66.33
18850;BME280;4989;48.772;9.154;2022-08-19T00:56:32;97531.38;;;25.33;66.08
18850;BME280;4989;48.772;9.154;2022-08-19T01:01:40;97534.16;;;25.33;65.75
18850;BME280;4989;48.772;9.154;2022-08-19T01:06:43;97535.22;;;25.30;65.99
18850;BME280;4989;48.772;9.154;2022-08-19T01:11:46;97542.50;;;25.33;66.15
18850;BME280;4989;48.772;9.154;2022-08-19T01:16:50;97532.44;;;25.30;66.16
18850;BME280;4989;48.772;9.154;2022-08-19T01:22:05;97531.38;;;25.33;66.33
18850;BME280;4989;48.772;9.154;2022-08-19T01:27:16;97532.63;;;25.32;66.17
18850;BME280;4989;48.772;9.154;2022-08-19T01:32:19;97531.47;;;25.27;66.31
18850;BME280;4989;48.772;9.154;2022-08-19T01:37:55;97522.66;;;25.23;66.92
18850;BME280;4989;48.772;9.154;2022-08-19T01:42:59;97514.66;;;25.20;66.58
18850;BME280;4989;48.772;9.154;2022-08-19T01:48:02;97520.75;;;25.18;66.46
18850;BME280;4989;48.772;9.154;2022-08-19T01:53:07;97516.69;;;25.19;66.45
18850;BME280;4989;48.772;9.154;2022-08-19T01:58:20;97515.94;;;25.19;66.30
18850;BME280;4989;48.772;9.154;2022-08-19T02:03:23;97530.06;;;25.21;66.35
18850;BME280;4989;48.772;9.154;2022-08-19T02:08:27;97534.13;;;25.20;66.87
18850;BME280;4989;48.772;9.154;2022-08-19T02:13:29;97528.88;;;25.16;66.52
18850;BME280;4989;48.772;9.154;2022-08-19T02:18:32;97523.59;;;25.12;67.13
18850;BME280;4989;48.772;9.154;2022-08-19T02:23:36;97525.13;;;25.13;67.58
18850;BME280;4989;48.772;9.154;2022-08-19T02:28:39;97526.16;;;25.10;66.91
18850;BME280;4989;48.772;9.154;2022-08-19T02:33:44;97529.56;;;25.03;67.16
18850;BME280;4989;48.772;9.154;2022-08-19T02:38:48;97525.72;;;25.06;67.49
18850;BME280;4989;48.772;9.154;2022-08-19T02:43:57;97524.44;;;25.07;66.72
18850;BME280;4989;48.772;9.154;2022-08-19T02:49:20;97518.69;;;25.05;66.61
18850;BME280;4989;48.772;9.154;2022-08-19T02:54:22;97516.66;;;25.06;67.82
18850;BME280;4989;48.772;9.154;2022-08-19T02:59:25;97514.16;;;25.02;67.57
18850;BME280;4989;48.772;9.154;2022-08-19T03:04:28;97504.53;;;25.03;68.02
18850;BME280;4989;48.772;9.154;2022-08-19T03:09:32;97504.63;;;24.98;67.15
18850;BME280;4989;48.772;9.154;2022-08-19T03:14:36;97525.03;;;24.87;68.26
18850;BME280;4989;48.772;9.154;2022-08-19T03:19:39;97535.41;;;24.86;68.77
18850;BME280;4989;48.772;9.154;2022-08-19T03:24:41;97532.03;;;24.75;69.46
18850;BME280;4989;48.772;9.154;2022-08-19T03:29:46;97520.09;;;24.80;69.24
18850;BME280;4989;48.772;9.154;2022-08-19T03:34:50;97526.09;;;24.84;69.41
18850;BME280;4989;48.772;9.154;2022-08-19T03:39:54;97536.91;;;24.87;69.86
18850;BME280;4989;48.772;9.154;2022-08-19T03:44:56;97531.97;;;24.80;69.82
18850;BME280;4989;48.772;9.154;2022-08-19T03:50:00;97526.19;;;24.78;69.96
18850;BME280;4989;48.772;9.154;2022-08-19T03:55:03;97531.97;;;24.80;69.43
18850;BME280;4989;48.772;9.154;2022-08-19T04:00:07;97536.03;;;24.79;69.02
18850;BME280;4989;48.772;9.154;2022-08-19T04:05:15;97541.06;;;24.81;68.71
18850;BME280;4989;48.772;9.154;2022-08-19T04:10:17;97537.84;;;24.77;68.05
18850;BME280;4989;48.772;9.154;2022-08-19T04:15:20;97536.66;;;24.72;68.99
18850;BME280;4989;48.772;9.154;2022-08-19T04:20:23;97544.47;;;24.74;69.13
18850;BME280;4989;48.772;9.154;2022-08-19T04:25:25;97541.91;;;24.76;68.44
18850;BME280;4989;48.772;9.154;2022-08-19T04:30:27;97535.94;;;24.53;69.10
18850;BME280;4989;48.772;9.154;2022-08-19T04:35:36;97537.56;;;24.61;68.40
18850;BME280;4989;48.772;9.154;2022-08-19T04:40:46;97532.44;;;24.65;68.40
18850;BME280;4989;48.772;9.154;2022-08-19T04:46:11;97535.63;;;24.56;68.43
18850;BME280;4989;48.772;9.154;2022-08-19T04:51:34;97547.63;;;24.64;68.74
18850;BME280;4989;48.772;9.154;2022-08-19T04:56:38;97541.19;;;24.56;68.88
18850;BME280;4989;48.772;9.154;2022-08-19T05:01:43;97553.19;;;24.64;68.42
18850;BME280;4989;48.772;9.154;2022-08-19T05:06:46;97549.13;;;24.65;68.85
18850;BME280;4989;48.772;9.154;2022-08-19T05:11:49;97555.31;;;24.58;69.07
18850;BME280;4989;48.772;9.154;2022-08-19T05:16:54;97566.72;;;24.55;68.48
18850;BME280;4989;48.772;9.154;2022-08-19T05:22:17;97581.88;;;24.54;68.85
18850;BME280;4989;48.772;9.154;2022-08-19T05:27:36;97595.59;;;24.08;70.24
18850;BME280;4989;48.772;9.154;2022-08-19T05:32:40;97618.34;;;24.26;70.09
18850;BME280;4989;48.772;9.154;2022-08-19T05:37:42;97635.22;;;24.52;68.88
18850;BME280;4989;48.772;9.154;2022-08-19T05:42:45;97641.69;;;24.60;68.86
18850;BME280;4989;48.772;9.154;2022-08-19T05:47:56;97631.78;;;24.65;68.96
18850;BME280;4989;48.772;9.154;2022-08-19T05:52:59;97635.84;;;24.64;68.65
18850;BME280;4989;48.772;9.154;2022-08-19T05:58:02;97635.84;;;24.64;68.54
18850;BME280;4989;48.772;9.154;2022-08-19T06:03:05;97628.69;;;24.68;68.33
18850;BME280;4989;48.772;9.154;2022-08-19T06:08:14;97632.50;;;24.65;68.40
18850;BME280;4989;48.772;9.154;2022-08-19T06:13:16;97639.75;;;24.55;68.58
18850;BME280;4989;48.772;9.154;2022-08-19T06:18:20;97640.34;;;24.48;68.63
18850;BME280;4989;48.772;9.154;2022-08-19T06:23:23;97633.44;;;24.55;69.61
18850;BME280;4989;48.772;9.154;2022-08-19T06:28:26;97633.88;;;24.59;69.52
18850;BME280;4989;48.772;9.154;2022-08-19T06:33:28;97634.09;;;24.61;68.47
18850;BME280;4989;48.772;9.154;2022-08-19T06:38:31;97633.13;;;24.58;69.24
18850;BME280;4989;48.772;9.154;2022-08-19T06:43:36;97636.59;;;24.64;69.03
18850;BME280;4989;48.772;9.154;2022-08-19T06:48:43;97632.97;;;24.70;69.70
18850;BME280;4989;48.772;9.154;2022-08-19T06:53:48;97646.94;;;24.64;69.31
18850;BME280;4989;48.772;9.154;2022-08-19T06:59:17;97641.09;;;24.67;70.10
18850;BME280;4989;48.772;9.154;2022-08-19T07:04:25;97646.34;;;24.71;70.15
18850;BME280;4989;48.772;9.154;2022-08-19T07:09:28;97648.59;;;24.73;69.68
18850;BME280;4989;48.772;9.154;2022-08-19T07:14:32;97652.22;;;24.67;69.81
18850;BME280;4989;48.772;9.154;2022-08-19T07:19:36;97657.31;;;24.63;70.32
18850;BME280;4989;48.772;9.154;2022-08-19T07:24:40;97666.56;;;24.72;70.33
18850;BME280;4989;48.772;9.154;2022-08-19T07:29:55;97657.59;;;24.60;70.09
18850;BME280;4989;48.772;9.154;2022-08-19T07:35:01;97657.53;;;24.65;69.77
18850;BME280;4989;48.772;9.154;2022-08-19T07:40:07;97662.28;;;24.71;69.33
18850;BME280;4989;48.772;9.154;2022-08-19T07:45:10;97656.47;;;24.68;69.79
18850;BME280;4989;48.772;9.154;2022-08-19T07:50:12;97664.88;;;24.63;70.12
18850;BME280;4989;48.772;9.154;2022-08-19T07:55:15;97661.22;;;24.74;69.60
18850;BME280;4989;48.772;9.154;2022-08-19T08:00:39;97666.56;;;24.72;69.13
18850;BME280;4989;48.772;9.154;2022-08-19T08:05:42;97662.41;;;24.59;69.92
18850;BME280;4989;48.772;9.154;2022-08-19T08:11:05;97663.41;;;24.62;69.99
18850;BME280;4989;48.772;9.154;2022-08-19T08:16:09;97676.56;;;24.61;69.59
18850;BME280;4989;48.772;9.154;2022-08-19T08:21:15;97677.75;;;24.66;69.04
18850;BME280;4989;48.772;9.154;2022-08-19T08:26:18;97677.47;;;24.70;69.55
18850;BME280;4989;48.772;9.154;2022-08-19T08:31:21;97679.25;;;24.67;69.36
18850;BME280;4989;48.772;9.154;2022-08-19T08:36:24;97683.97;;;24.53;69.78
18850;BME280;4989;48.772;9.154;2022-08-19T08:47:00;97671.72;;;24.81;69.12
18850;BME280;4989;48.772;9.154;2022-08-19T08:52:17;97678.44;;;24.91;69.18
18850;BME280;4989;48.772;9.154;2022-08-19T09:02:38;97683.31;;;24.85;69.25
18850;BME280;4989;48.772;9.154;2022-08-19T09:13:26;97684.81;;;24.86;69.72
18850;BME280;4989;48.772;9.154;2022-08-19T09:18:47;97679.25;;;24.86;69.86
18850;BME280;4989;48.772;9.154;2022-08-19T09:23:51;97691.88;;;25.06;70.10
18850;BME280;4989;48.772;9.154;2022-08-19T09:28:54;97684.50;;;25.27;69.25
18850;BME280;4989;48.772;9.154;2022-08-19T09:33:59;97688.56;;;25.26;69.54
18850;BME280;4989;48.772;9.154;2022-08-19T09:39:06;97691.72;;;25.36;68.21
18850;BME280;4989;48.772;9.154;2022-08-19T09:44:18;97687.81;;;25.26;67.87
18850;BME280;4989;48.772;9.154;2022-08-19T09:49:23;97688.88;;;25.04;69.44
18850;BME280;4989;48.772;9.154;2022-08-19T09:54:26;97691.97;;;25.00;68.81
18850;BME280;4989;48.772;9.154;2022-08-19T09:59:29;97702.41;;;25.13;69.21
18850;BME280;4989;48.772;9.154;2022-08-19T10:04:34;97697.66;;;25.08;69.30
18850;BME280;4989;48.772;9.154;2022-08-19T10:09:56;97698.78;;;24.99;69.79
18850;BME280;4989;48.772;9.154;2022-08-19T10:14:59;97693.91;;;25.05;69.53
18850;BME280;4989;48.772;9.154;2022-08-19T10:20:02;97690.50;;;25.12;68.92
18850;BME280;4989;48.772;9.154;2022-08-19T10:25:07;97695.06;;;25.16;68.84
18850;BME280;4989;48.772;9.154;2022-08-19T10:30:10;97686.72;;;25.16;68.68
18850;BME280;4989;48.772;9.154;2022-08-19T10:35:14;97693.25;;;25.18;69.02
18850;BME280;4989;48.772;9.154;2022-08-19T10:40:23;97684.59;;;25.22;68.77
18850;BME280;4989;48.772;9.154;2022-08-19T10:45:26;97673.69;;;25.24;68.34
18850;BME280;4989;48.772;9.154;2022-08-19T10:50:29;97684.34;;;25.20;68.60
18850;BME280;4989;48.772;9.154;2022-08-19T10:55:50;97673.47;;;25.22;67.84
18850;BME280;4989;48.772;9.154;2022-08-19T11:01:11;97675.19;;;25.25;68.33
18850;BME280;4989;48.772;9.154;2022-08-19T11:06:14;97675.19;;;25.25;68.22
18850;BME280;4989;48.772;9.154;2022-08-19T11:11:16;97680.75;;;25.25;67.79
18850;BME280;4989;48.772;9.154;2022-08-19T11:16:22;97674.88;;;25.28;67.66
18850;BME280;4989;48.772;9.154;2022-08-19T11:26:29;97666.25;;;25.45;67.10
18850;BME280;4989;48.772;9.154;2022-08-19T11:31:34;97666.69;;;25.49;66.57
18850;BME280;4989;48.772;9.154;2022-08-19T11:36:43;97666.69;;;25.49;66.97
18850;BME280;4989;48.772;9.154;2022-08-19T11:41:47;97665.81;;;25.41;67.64
18850;BME280;4989;48.772;9.154;2022-08-19T11:46:49;97664.44;;;25.48;66.83
18850;BME280;4989;48.772;9.154;2022-08-19T11:51:52;97672.25;;;25.49;67.30
18850;BME280;4989;48.772;9.154;2022-08-19T11:56:55;97680.19;;;25.58;66.20
18850;BME280;4989;48.772;9.154;2022-08-19T12:01:58;97664.56;;;25.55;66.01
18850;BME280;4989;48.772;9.154;2022-08-19T12:07:01;97659.00;;;25.55;66.09
18850;BME280;4989;48.772;9.154;2022-08-19T12:12:04;97655.34;;;25.47;66.52
18850;BME280;4989;48.772;9.154;2022-08-19T12:17:07;97660.38;;;25.49;65.90
18850;BME280;4989;48.772;9.154;2022-08-19T12:22:11;97663.38;;;25.51;66.02
18850;BME280;4989;48.772;9.154;2022-08-19T12:27:13;97660.38;;;25.49;65.63
18850;BME280;4989;48.772;9.154;2022-08-19T12:32:33;97656.88;;;25.62;65.57
18850;BME280;4989;48.772;9.154;2022-08-19T12:37:37;97663.91;;;25.49;66.21
18850;BME280;4989;48.772;9.154;2022-08-19T12:42:40;97663.47;;;25.45;66.45
18850;BME280;4989;48.772;9.154;2022-08-19T12:47:46;97661.88;;;24.99;71.73
18850;BME280;4989;48.772;9.154;2022-08-19T12:52:51;97660.44;;;25.11;71.45
18850;BME280;4989;48.772;9.154;2022-08-19T12:57:53;97659.66;;;24.78;70.97
18850;BME280;4989;48.772;9.154;2022-08-19T13:02:57;97658.06;;;24.64;71.96
18850;BME280;4989;48.772;9.154;2022-08-19T13:08:00;97659.88;;;24.61;72.36
18850;BME280;4989;48.772;9.154;2022-08-19T13:13:08;97673.06;;;24.93;70.21
18850;BME280;4989;48.772;9.154;2022-08-19T13:18:12;97672.78;;;24.97;70.62
18850;BME280;4989;48.772;9.154;2022-08-19T13:23:15;97680.59;;;24.98;71.56
18850;BME280;4989;48.772;9.154;2022-08-19T13:28:17;97678.94;;;24.89;74.87
18850;BME280;4989;48.772;9.154;2022-08-19T13:33:23;97673.59;;;24.10;81.61
18850;BME280;4989;48.772;9.154;2022-08-19T13:38:28;97680.81;;;23.64;88.38
18850;BME280;4989;48.772;9.154;2022-08-19T13:43:32;97675.25;;;22.93;98.59
18850;BME280;4989;48.772;9.154;2022-08-19T13:48:35;97672.84;;;23.19;97.18
18850;BME280;4989;48.772;9.154;2022-08-19T13:53:38;97671.44;;;23.07;99.44
18850;BME280;4989;48.772;9.154;2022-08-19T13:58:41;97682.81;;;23.03;100.00
18850;BME280;4989;48.772;9.154;2022-08-19T14:03:44;97705.94;;;22.59;100.00
18850;BME280;4989;48.772;9.154;2022-08-19T14:08:48;97693.22;;;22.16;100.00
18850;BME280;4989;48.772;9.154;2022-08-19T14:13:51;97692.69;;;22.24;100.00
18850;BME280;4989;48.772;9.154;2022-08-19T14:18:54;97701.78;;;22.18;100.00
18850;BME280;4989;48.772;9.154;2022-08-19T14:23:57;97702.13;;;22.62;100.00
18850;BME280;4989;48.772;9.154;2022-08-19T14:28:59;97698.16;;;22.52;100.00
18850;BME280;4989;48.772;9.154;2022-08-19T14:34:03;97688.59;;;22.41;100.00
18850;BME280;4989;48.772;9.154;2022-08-19T14:39:06;97679.00;;;22.54;100.00
18850;BME280;4989;48.772;9.154;2022-08-19T14:44:08;97676.53;;;22.92;100.00
18850;BME280;4989;48.772;9.154;2022-08-19T14:49:14;97677.19;;;22.62;100.00
18850;BME280;4989;48.772;9.154;2022-08-19T14:54:17;97674.25;;;22.49;100.00
18850;BME280;4989;48.772;9.154;2022-08-19T14:59:20;97661.59;;;22.59;100.00
18850;BME280;4989;48.772;9.154;2022-08-19T15:04:23;97656.63;;;22.40;100.00
18850;BME280;4989;48.772;9.154;2022-08-19T15:09:25;97663.88;;;22.60;100.00
18850;BME280;4989;48.772;9.154;2022-08-19T15:14:29;97659.50;;;22.76;100.00
18850;BME280;4989;48.772;9.154;2022-08-19T15:19:38;97648.81;;;22.92;100.00
18850;BME280;4989;48.772;9.154;2022-08-19T15:24:41;97661.41;;;22.93;95.26
18850;BME280;4989;48.772;9.154;2022-08-19T15:29:49;97657.31;;;23.05;94.59
18850;BME280;4989;48.772;9.154;2022-08-19T15:34:57;97659.22;;;23.21;92.36
18850;BME280;4989;48.772;9.154;2022-08-19T15:40:00;97659.91;;;23.33;90.89
18850;BME280;4989;48.772;9.154;2022-08-19T15:45:05;97662.47;;;23.86;87.14
18850;BME280;4989;48.772;9.154;2022-08-19T15:50:14;97661.25;;;24.30;84.98
18850;BME280;4989;48.772;9.154;2022-08-19T15:55:18;97668.69;;;24.41;84.62
18850;BME280;4989;48.772;9.154;2022-08-19T16:00:35;97661.88;;;24.17;86.18
18850;BME280;4989;48.772;9.154;2022-08-19T16:05:57;97673.84;;;24.75;81.52
18850;BME280;4989;48.772;9.154;2022-08-19T16:11:19;97675.47;;;25.02;80.04
18850;BME280;4989;48.772;9.154;2022-08-19T16:16:24;97668.09;;;25.05;80.06
18850;BME280;4989;48.772;9.154;2022-08-19T16:21:35;97672.94;;;25.04;78.37
18850;BME280;4989;48.772;9.154;2022-08-19T16:26:43;97678.72;;;25.06;78.25
18850;BME280;4989;48.772;9.154;2022-08-19T16:31:46;97682.88;;;25.19;74.46
18850;BME280;4989;48.772;9.154;2022-08-19T16:36:49;97688.44;;;25.19;74.02
18850;BME280;4989;48.772;9.154;2022-08-19T16:41:52;97702.09;;;25.17;74.09
18850;BME280;4989;48.772;9.154;2022-08-19T16:46:54;97697.59;;;25.13;76.75
18850;BME280;4989;48.772;9.154;2022-08-19T16:52:00;97705.13;;;25.00;78.14
18850;BME280;4989;48.772;9.154;2022-08-19T16:57:05;97705.72;;;24.74;80.62
18850;BME280;4989;48.772;9.154;2022-08-19T17:02:13;97721.69;;;24.49;82.01
18850;BME280;4989;48.772;9.154;2022-08-19T17:07:15;97731.44;;;23.82;87.78
18850;BME280;4989;48.772;9.154;2022-08-19T17:12:18;97727.63;;;23.07;94.27
18850;BME280;4989;48.772;9.154;2022-08-19T17:17:21;97731.59;;;23.18;94.69
18850;BME280;4989;48.772;9.154;2022-08-19T17:22:30;97737.78;;;22.94;97.09
18850;BME280;4989;48.772;9.154;2022-08-19T17:27:32;97738.31;;;22.81;99.07
18850;BME280;4989;48.772;9.154;2022-08-19T17:32:35;97729.19;;;23.03;96.53
18850;BME280;4989;48.772;9.154;2022-08-19T17:37:38;97740.91;;;22.62;99.99
18850;BME280;4989;48.772;9.154;2022-08-19T17:42:41;97743.28;;;22.35;100.00
18850;BME280;4989;48.772;9.154;2022-08-19T17:47:43;97738.78;;;22.21;100.00
18850;BME280;4989;48.772;9.154;2022-08-19T17:52:46;97745.81;;;22.33;100.00
18850;BME280;4989;48.772;9.154;2022-08-19T17:57:49;97739.78;;;22.24;100.00
18850;BME280;4989;48.772;9.154;2022-08-19T18:02:57;97749.34;;;22.17;100.00
18850;BME280;4989;48.772;9.154;2022-08-19T18:08:01;97750.84;;;22.07;100.00
18850;BME280;4989;48.772;9.154;2022-08-19T18:13:04;97756.88;;;22.11;100.00
18850;BME280;4989;48.772;9.154;2022-08-19T18:18:19;97757.84;;;22.41;100.00
18850;BME280;4989;48.772;9.154;2022-08-19T18:23:22;97766.47;;;22.10;100.00
18850;BME280;4989;48.772;9.154;2022-08-19T18:28:45;97771.00;;;22.07;100.00
18850;BME280;4989;48.772;9.154;2022-08-19T18:33:51;97777.22;;;22.53;100.00
18850;BME280;4989;48.772;9.154;2022-08-19T18:38:54;97773.72;;;22.41;100.00
18850;BME280;4989;48.772;9.154;2022-08-19T18:44:15;97777.28;;;22.25;100.00
18850;BME280;4989;48.772;9.154;2022-08-19T18:49:37;97786.25;;;22.64;100.00
18850;BME280;4989;48.772;9.154;2022-08-19T18:54:40;97788.22;;;22.75;100.00
18850;BME280;4989;48.772;9.154;2022-08-19T18:59:43;97788.03;;;22.62;100.00
18850;BME280;4989;48.772;9.154;2022-08-19T19:04:49;97785.63;;;23.05;97.85
18850;BME280;4989;48.772;9.154;2022-08-19T19:09:52;97797.06;;;22.68;100.00
18850;BME280;4989;48.772;9.154;2022-08-19T19:14:55;97799.19;;;23.56;91.98
18850;BME280;4989;48.772;9.154;2022-08-19T19:19:59;97794.66;;;23.94;89.17
18850;BME280;4989;48.772;9.154;2022-08-19T19:25:02;97802.56;;;23.43;93.72
18850;BME280;4989;48.772;9.154;2022-08-19T19:30:05;97805.69;;;22.53;100.00
18850;BME280;4989;48.772;9.154;2022-08-19T19:35:08;97812.03;;;22.26;100.00
18850;BME280;4989;48.772;9.154;2022-08-19T19:40:11;97805.38;;;22.68;100.00
18850;BME280;4989;48.772;9.154;2022-08-19T19:45:15;97809.44;;;23.31;94.62
18850;BME280;4989;48.772;9.154;2022-08-19T19:50:18;97815.59;;;23.54;91.25
18850;BME280;4989;48.772;9.154;2022-08-19T19:55:20;97818.53;;;23.31;91.28
18850;BME280;4989;48.772;9.154;2022-08-19T20:00:24;97812.00;;;23.23;91.03
18850;BME280;4989;48.772;9.154;2022-08-19T20:05:27;97825.25;;;22.95;92.87
18850;BME280;4989;48.772;9.154;2022-08-19T20:10:29;97829.03;;;22.97;92.72
18850;BME280;4989;48.772;9.154;2022-08-19T20:15:33;97825.72;;;22.99;93.09
18850;BME280;4989;48.772;9.154;2022-08-19T20:20:42;97828.03;;;23.42;88.54
18850;BME280;4989;48.772;9.154;2022-08-19T20:25:45;97833.00;;;23.60;86.83
18850;BME280;4989;48.772;9.154;2022-08-19T20:30:48;97842.47;;;23.82;80.58
18850;BME280;4989;48.772;9.154;2022-08-19T20:35:51;97834.56;;;23.91;69.68
18850;BME280;4989;48.772;9.154;2022-08-19T20:40:54;97839.13;;;23.89;69.93
18850;BME280;4989;48.772;9.154;2022-08-19T20:45:56;97835.31;;;23.92;69.22
18850;BME280;4989;48.772;9.154;2022-08-19T20:50:59;97830.34;;;24.15;76.62
18850;BME280;4989;48.772;9.154;2022-08-19T20:56:02;97825.16;;;24.00;61.98
18850;BME280;4989;48.772;9.154;2022-08-19T21:01:06;97829.06;;;23.86;61.12
18850;BME280;4989;48.772;9.154;2022-08-19T21:06:13;97827.31;;;23.83;71.39
18850;BME280;4989;48.772;9.154;2022-08-19T21:11:15;97838.88;;;23.87;64.34
18850;BME280;4989;48.772;9.154;2022-08-19T21:16:22;97838.34;;;23.94;63.05
18850;BME280;4989;48.772;9.154;2022-08-19T21:21:24;97842.94;;;23.86;64.06
18850;BME280;4989;48.772;9.154;2022-08-19T21:26:27;97838.69;;;23.79;65.21
18850;BME280;4989;48.772;9.154;2022-08-19T21:31:29;97839.44;;;23.80;65.72
18850;BME280;4989;48.772;9.154;2022-08-19T21:36:32;97842.47;;;23.82;73.51
18850;BME280;4989;48.772;9.154;2022-08-19T21:41:34;97848.22;;;24.19;73.28
18850;BME280;4989;48.772;9.154;2022-08-19T21:46:37;97844.63;;;24.00;64.94
18850;BME280;4989;48.772;9.154;2022-08-19T21:51:40;97848.69;;;24.23;68.49
18850;BME280;4989;48.772;9.154;2022-08-19T21:56:43;97854.94;;;24.30;72.30
18850;BME280;4989;48.772;9.154;2022-08-19T22:01:45;97849.19;;;24.28;72.37
18850;BME280;4989;48.772;9.154;2022-08-19T22:06:57;97858.84;;;24.21;72.07
18850;BME280;4989;48.772;9.154;2022-08-19T22:12:00;97859.81;;;24.23;67.72
18850;BME280;4989;48.772;9.154;2022-08-19T22:17:03;97866.59;;;24.28;69.46
18850;BME280;4989;48.772;9.154;2022-08-19T22:22:06;97868.75;;;24.41;71.67
18850;BME280;4989;48.772;9.154;2022-08-19T22:27:09;97866.59;;;24.58;72.52
18850;BME280;4989;48.772;9.154;2022-08-19T22:32:12;97875.22;;;24.25;67.97
18850;BME280;4989;48.772;9.154;2022-08-19T22:37:29;97877.38;;;24.43;70.96
18850;BME280;4989;48.772;9.154;2022-08-19T22:42:33;97875.66;;;24.64;67.65
18850;BME280;4989;48.772;9.154;2022-08-19T22:47:36;97872.34;;;24.66;67.10
18850;BME280;4989;48.772;9.154;2022-08-19T22:52:40;97877.63;;;24.70;68.92
18850;BME280;4989;48.772;9.154;2022-08-19T22:57:54;97867.75;;;24.93;69.58
18850;BME280;4989;48.772;9.154;2022-08-19T23:02:57;97879.81;;;25.01;69.19
18850;BME280;4989;48.772;9.154;2022-08-19T23:08:00;97878.00;;;25.04;67.82
18850;BME280;4989;48.772;9.154;2022-08-19T23:13:02;97888.91;;;25.02;68.80
18850;BME280;4989;48.772;9.154;2022-08-19T23:18:05;97889.19;;;24.74;68.46
18850;BME280;4989;48.772;9.154;2022-08-19T23:23:11;97887.13;;;24.80;68.56
18850;BME280;4989;48.772;9.154;2022-08-19T23:28:14;97891.88;;;24.85;69.83
18850;BME280;4989;48.772;9.154;2022-08-19T23:33:38;97891.66;;;24.53;66.60
18850;BME280;4989;48.772;9.154;2022-08-19T23:38:53;97893.00;;;24.40;67.88
18850;BME280;4989;48.772;9.154;2022-08-19T23:43:55;97898.25;;;23.78;73.31
18850;BME280;4989;48.772;9.154;2022-08-19T23:49:01;97897.56;;;23.66;73.14
18850;BME280;4989;48.772;9.154;2022-08-19T23:54:04;97907.38;;;23.09;76.51
18850;BME280;4989;48.772;9.154;2022-08-19T23:59:07;97896.41;;;23.92;73.22
